sensor_id;sensor_type;location;lat;lon;timestamp;temperature;humidity
7572;DHT22;3827;49.928;8.548;2023-12-04T00:00:06;-3.20;99.90
7572;DHT22;3827;49.928;8.548;2023-12-04T00:02:33;-3.10;99.90
7572;DHT22;3827;49.928;8.548;2023-12-04T00:05:00;-3.20;99.90
7572;DHT22;3827;49.928;8.548;2023-12-04T00:07:26;-3.20;99.90
7572;DHT22;3827;49.928;8.548;2023-12-04T00:09:53;-3.20;99.90
7572;DHT22;3827;49.928;8.548;2023-12-04T00:12:20;-3.30;99.90
7572;DHT22;3827;49.928;8.548;2023-12-04T00:14:47;-3.40;99.90
7572;DHT22;3827;49.928;8.548;2023-12-04T00:17:15;-3.30;99.90
7572;DHT22;3827;49.928;8.548;2023-12-04T00:19:41;-3.20;99.90
7572;DHT22;3827;49.928;8.548;2023-12-04T00:22:08;-3.30;99.90
7572;DHT22;3827;49.928;8.548;2023-12-04T00:24:35;-3.40;99.90
7572;DHT22;3827;49.928;8.548;2023-12-04T00:27:02;-3.40;99.90
7572;DHT22;3827;49.928;8.548;2023-12-04T00:29:28;-3.40;99.90
7572;DHT22;3827;49.928;8.548;2023-12-04T00:31:55;-3.40;99.90
7572;DHT22;3827;49.928;8.548;2023-12-04T00:34:24;-3.50;99.90
7572;DHT22;3827;49.928;8.548;2023-12-04T00:36:51;-3.50;99.90
7572;DHT22;3827;49.928;8.548;2023-12-04T00:39:18;-3.60;99.90
7572;DHT22;3827;49.928;8.548;2023-12-04T00:41:44;-3.60;99.90
7572;DHT22;3827;49.928;8.548;2023-12-04T00:44:11;-3.70;99.90
7572;DHT22;3827;49.928;8.548;2023-12-04T00:46:38;-3.70;99.90
7572;DHT22;3827;49.928;8.548;2023-12-04T00:49:05;-3.70;99.90
7572;DHT22;3827;49.928;8.548;2023-12-04T00:51:38;-3.80;99.90
7572;DHT22;3827;49.928;8.548;2023-12-04T00:54:05;-3.80;99.90
7572;DHT22;3827;49.928;8.548;2023-12-04T00:56:31;-3.80;99.90
7572;DHT22;3827;49.928;8.548;2023-12-04T00:58:58;-3.80;99.90
7572;DHT22;3827;49.928;8.548;2023-12-04T01:01:25;-3.80;99.90
7572;DHT22;3827;49.928;8.548;2023-12-04T01:03:52;-3.90;99.90
7572;DHT22;3827;49.928;8.548;2023-12-04T01:06:21;-3.80;99.90
7572;DHT22;3827;49.928;8.548;2023-12-04T01:08:50;-3.90;99.90
7572;DHT22;3827;49.928;8.548;2023-12-04T01:11:17;-3.80;99.90
7572;DHT22;3827;49.928;8.548;2023-12-04T01:13:45;-3.80;99.90
7572;DHT22;3827;49.928;8.548;2023-12-04T01:16:12;-3.70;99.90
7572;DHT22;3827;49.928;8.548;2023-12-04T01:18:39;-3.70;99.90
7572;DHT22;3827;49.928;8.548;2023-12-04T01:21:06;-3.70;99.90
7572;DHT22;3827;49.928;8.548;2023-12-04T01:23:34;-3.70;99.90
7572;DHT22;3827;49.928;8.548;2023-12-04T01:26:03;-3.70;99.90
7572;DHT22;3827;49.928;8.548;2023-12-04T01:28:30;-3.60;99.90
7572;DHT22;3827;49.928;8.548;2023-12-04T01:30:56;-3.70;99.90
7572;DHT22;3827;49.928;8.548;2023-12-04T01:33:23;-3.80;99.90
7572;DHT22;3827;49.928;8.548;2023-12-04T01:35:50;-3.70;99.90
7572;DHT22;3827;49.928;8.548;2023-12-04T01:38:17;-3.60;99.90
7572;DHT22;3827;49.928;8.548;2023-12-04T01:40:44;-3.70;99.90
7572;DHT22;3827;49.928;8.548;2023-12-04T01:43:12;-3.70;99.90
7572;DHT22;3827;49.928;8.548;2023-12-04T01:45:40;-3.70;99.90
7572;DHT22;3827;49.928;8.548;2023-12-04T01:48:08;-3.70;99.90
7572;DHT22;3827;49.928;8.548;2023-12-04T01:50:35;-3.60;99.90
7572;DHT22;3827;49.928;8.548;2023-12-04T01:53:02;-3.70;99.90
7572;DHT22;3827;49.928;8.548;2023-12-04T01:55:30;-3.70;99.90
7572;DHT22;3827;49.928;8.548;2023-12-04T01:57:59;-3.00;99.90
7572;DHT22;3827;49.928;8.548;2023-12-04T02:00:28;-3.70;99.90
7572;DHT22;3827;49.928;8.548;2023-12-04T02:02:55;-3.80;99.90
7572;DHT22;3827;49.928;8.548;2023-12-04T02:05:22;-3.80;99.90
7572;DHT22;3827;49.928;8.548;2023-12-04T02:07:50;-3.70;99.90
7572;DHT22;3827;49.928;8.548;2023-12-04T02:10:16;-3.80;99.90
7572;DHT22;3827;49.928;8.548;2023-12-04T02:12:43;-3.70;99.90
7572;DHT22;3827;49.928;8.548;2023-12-04T02:15:10;-3.80;99.90
7572;DHT22;3827;49.928;8.548;2023-12-04T02:17:39;-3.90;99.90
7572;DHT22;3827;49.928;8.548;2023-12-04T02:20:07;-3.80;99.90
7572;DHT22;3827;49.928;8.548;2023-12-04T02:22:34;-4.00;99.90
7572;DHT22;3827;49.928;8.548;2023-12-04T02:25:03;-3.90;99.90
7572;DHT22;3827;49.928;8.548;2023-12-04T02:27:38;-4.00;99.90
7572;DHT22;3827;49.928;8.548;2023-12-04T02:30:11;-3.90;99.90
7572;DHT22;3827;49.928;8.548;2023-12-04T02:32:43;-4.00;99.90
7572;DHT22;3827;49.928;8.548;2023-12-04T02:35:11;-4.00;99.90
7572;DHT22;3827;49.928;8.548;2023-12-04T02:37:41;-3.90;99.90
7572;DHT22;3827;49.928;8.548;2023-12-04T02:40:11;-3.90;99.90
7572;DHT22;3827;49.928;8.548;2023-12-04T02:42:38;-4.00;99.90
7572;DHT22;3827;49.928;8.548;2023-12-04T02:45:06;-3.90;99.90
7572;DHT22;3827;49.928;8.548;2023-12-04T02:47:33;-4.00;99.90
7572;DHT22;3827;49.928;8.548;2023-12-04T02:50:00;-3.90;99.90
7572;DHT22;3827;49.928;8.548;2023-12-04T02:52:26;-3.90;99.90
7572;DHT22;3827;49.928;8.548;2023-12-04T02:54:53;-3.90;99.90
7572;DHT22;3827;49.928;8.548;2023-12-04T02:57:21;-3.90;99.90
7572;DHT22;3827;49.928;8.548;2023-12-04T02:59:48;-4.20;99.90
7572;DHT22;3827;49.928;8.548;2023-12-04T03:02:15;-3.90;99.90
7572;DHT22;3827;49.928;8.548;2023-12-04T03:04:42;-4.00;99.90
7572;DHT22;3827;49.928;8.548;2023-12-04T03:07:09;-4.10;99.90
7572;DHT22;3827;49.928;8.548;2023-12-04T03:09:35;-4.10;99.90
7572;DHT22;3827;49.928;8.548;2023-12-04T03:12:02;-4.00;99.90
7572;DHT22;3827;49.928;8.548;2023-12-04T03:14:30;-3.90;99.90
7572;DHT22;3827;49.928;8.548;2023-12-04T03:16:57;-4.10;99.90
7572;DHT22;3827;49.928;8.548;2023-12-04T03:19:24;-3.90;99.90
7572;DHT22;3827;49.928;8.548;2023-12-04T03:21:51;-3.90;99.90
7572;DHT22;3827;49.928;8.548;2023-12-04T03:24:17;-4.00;99.90
7572;DHT22;3827;49.928;8.548;2023-12-04T03:26:44;-4.00;99.90
7572;DHT22;3827;49.928;8.548;2023-12-04T03:29:11;-4.10;99.90
7572;DHT22;3827;49.928;8.548;2023-12-04T03:31:40;-3.90;99.90
7572;DHT22;3827;49.928;8.548;2023-12-04T03:34:06;-3.90;99.90
7572;DHT22;3827;49.928;8.548;2023-12-04T03:36:33;-4.00;99.90
7572;DHT22;3827;49.928;8.548;2023-12-04T03:39:00;-3.80;99.90
7572;DHT22;3827;49.928;8.548;2023-12-04T03:41:26;-3.90;99.90
7572;DHT22;3827;49.928;8.548;2023-12-04T03:43:53;-4.10;99.90
7572;DHT22;3827;49.928;8.548;2023-12-04T03:46:20;-4.00;99.90
7572;DHT22;3827;49.928;8.548;2023-12-04T03:48:48;-3.80;99.90
7572;DHT22;3827;49.928;8.548;2023-12-04T03:51:15;-3.90;99.90
7572;DHT22;3827;49.928;8.548;2023-12-04T03:53:42;-3.90;99.90
7572;DHT22;3827;49.928;8.548;2023-12-04T03:56:10;-3.80;99.90
7572;DHT22;3827;49.928;8.548;2023-12-04T03:58:37;-3.80;99.90
7572;DHT22;3827;49.928;8.548;2023-12-04T04:01:04;-3.90;99.90
7572;DHT22;3827;49.928;8.548;2023-12-04T04:03:31;-3.70;99.90
7572;DHT22;3827;49.928;8.548;2023-12-04T04:05:59;-3.30;99.90
7572;DHT22;3827;49.928;8.548;2023-12-04T04:08:25;-3.80;99.90
7572;DHT22;3827;49.928;8.548;2023-12-04T04:10:52;-3.80;99.90
7572;DHT22;3827;49.928;8.548;2023-12-04T04:13:19;-3.70;99.90
7572;DHT22;3827;49.928;8.548;2023-12-04T04:15:46;-3.70;99.90
7572;DHT22;3827;49.928;8.548;2023-12-04T04:18:12;-3.70;99.90
7572;DHT22;3827;49.928;8.548;2023-12-04T04:20:39;-3.70;99.90
7572;DHT22;3827;49.928;8.548;2023-12-04T04:23:07;-3.70;99.90
7572;DHT22;3827;49.928;8.548;2023-12-04T04:25:34;-3.80;99.90
7572;DHT22;3827;49.928;8.548;2023-12-04T04:28:01;-3.60;99.90
7572;DHT22;3827;49.928;8.548;2023-12-04T04:30:27;-3.70;99.90
7572;DHT22;3827;49.928;8.548;2023-12-04T04:32:54;-3.70;99.90
7572;DHT22;3827;49.928;8.548;2023-12-04T04:35:21;-3.60;99.90
7572;DHT22;3827;49.928;8.548;2023-12-04T04:37:48;-3.60;99.90
7572;DHT22;3827;49.928;8.548;2023-12-04T04:40:16;-3.60;99.90
7572;DHT22;3827;49.928;8.548;2023-12-04T04:42:43;-3.50;99.90
7572;DHT22;3827;49.928;8.548;2023-12-04T04:45:10;-3.50;99.90
7572;DHT22;3827;49.928;8.548;2023-12-04T04:47:37;-3.60;99.90
7572;DHT22;3827;49.928;8.548;2023-12-04T04:50:04;-3.40;99.90
7572;DHT22;3827;49.928;8.548;2023-12-04T04:52:31;-3.40;99.90
7572;DHT22;3827;49.928;8.548;2023-12-04T04:54:57;-3.50;99.90
7572;DHT22;3827;49.928;8.548;2023-12-04T04:57:26;-3.60;99.90
7572;DHT22;3827;49.928;8.548;2023-12-04T04:59:52;-3.60;99.90
7572;DHT22;3827;49.928;8.548;2023-12-04T05:02:19;-3.70;99.90
7572;DHT22;3827;49.928;8.548;2023-12-04T05:04:46;-3.60;99.90
7572;DHT22;3827;49.928;8.548;2023-12-04T05:07:12;-3.70;99.90
7572;DHT22;3827;49.928;8.548;2023-12-04T05:09:39;-3.60;99.90
7572;DHT22;3827;49.928;8.548;2023-12-04T05:12:06;-2.90;99.90
7572;DHT22;3827;49.928;8.548;2023-12-04T05:14:35;-3.60;99.90
7572;DHT22;3827;49.928;8.548;2023-12-04T05:17:01;-3.60;99.90
7572;DHT22;3827;49.928;8.548;2023-12-04T05:19:28;-2.10;99.90
7572;DHT22;3827;49.928;8.548;2023-12-04T05:21:55;-3.80;99.90
7572;DHT22;3827;49.928;8.548;2023-12-04T05:24:21;-3.90;99.90
7572;DHT22;3827;49.928;8.548;2023-12-04T05:26:48;-3.90;99.90
7572;DHT22;3827;49.928;8.548;2023-12-04T05:29:15;-3.80;99.90
7572;DHT22;3827;49.928;8.548;2023-12-04T05:31:43;-3.90;99.90
7572;DHT22;3827;49.928;8.548;2023-12-04T05:34:10;-3.80;99.90
7572;DHT22;3827;49.928;8.548;2023-12-04T05:36:36;-4.00;99.90
7572;DHT22;3827;49.928;8.548;2023-12-04T05:39:03;-3.70;99.90
7572;DHT22;3827;49.928;8.548;2023-12-04T05:41:30;-3.90;99.90
7572;DHT22;3827;49.928;8.548;2023-12-04T05:43:57;-3.80;99.90
7572;DHT22;3827;49.928;8.548;2023-12-04T05:46:24;-3.60;99.90
7572;DHT22;3827;49.928;8.548;2023-12-04T05:48:52;-3.90;99.90
7572;DHT22;3827;49.928;8.548;2023-12-04T05:51:19;-4.10;99.90
7572;DHT22;3827;49.928;8.548;2023-12-04T05:53:46;-3.90;99.90
7572;DHT22;3827;49.928;8.548;2023-12-04T05:56:12;-4.00;99.90
7572;DHT22;3827;49.928;8.548;2023-12-04T05:58:39;-4.10;99.90
7572;DHT22;3827;49.928;8.548;2023-12-04T06:01:06;-3.90;99.90
7572;DHT22;3827;49.928;8.548;2023-12-04T06:03:33;-3.90;99.90
7572;DHT22;3827;49.928;8.548;2023-12-04T06:06:01;-4.00;99.90
7572;DHT22;3827;49.928;8.548;2023-12-04T06:08:28;-2.90;99.90
7572;DHT22;3827;49.928;8.548;2023-12-04T06:10:54;-3.90;99.90
7572;DHT22;3827;49.928;8.548;2023-12-04T06:13:21;-3.90;99.90
7572;DHT22;3827;49.928;8.548;2023-12-04T06:15:48;-4.00;99.90
7572;DHT22;3827;49.928;8.548;2023-12-04T06:18:15;-3.90;99.90
7572;DHT22;3827;49.928;8.548;2023-12-04T06:20:42;-3.90;99.90
7572;DHT22;3827;49.928;8.548;2023-12-04T06:23:10;-3.80;99.90
7572;DHT22;3827;49.928;8.548;2023-12-04T06:25:38;-3.90;99.90
7572;DHT22;3827;49.928;8.548;2023-12-04T06:28:05;-3.80;99.90
7572;DHT22;3827;49.928;8.548;2023-12-04T06:30:32;-3.90;99.90
7572;DHT22;3827;49.928;8.548;2023-12-04T06:33:00;-3.90;99.90
7572;DHT22;3827;49.928;8.548;2023-12-04T06:35:27;-3.90;99.90
7572;DHT22;3827;49.928;8.548;2023-12-04T06:37:54;-3.80;99.90
7572;DHT22;3827;49.928;8.548;2023-12-04T06:40:23;-3.80;99.90
7572;DHT22;3827;49.928;8.548;2023-12-04T06:42:50;-3.70;99.90
7572;DHT22;3827;49.928;8.548;2023-12-04T06:45:18;-0.40;99.90
7572;DHT22;3827;49.928;8.548;2023-12-04T06:47:46;-3.90;99.90
7572;DHT22;3827;49.928;8.548;2023-12-04T06:50:15;-3.70;99.90
7572;DHT22;3827;49.928;8.548;2023-12-04T06:52:41;-3.60;99.90
7572;DHT22;3827;49.928;8.548;2023-12-04T06:55:08;-3.80;99.90
7572;DHT22;3827;49.928;8.548;2023-12-04T06:57:36;-3.70;99.90
7572;DHT22;3827;49.928;8.548;2023-12-04T07:00:04;-3.80;99.90
7572;DHT22;3827;49.928;8.548;2023-12-04T07:02:32;-3.70;99.90
7572;DHT22;3827;49.928;8.548;2023-12-04T07:04:59;-3.80;99.90
7572;DHT22;3827;49.928;8.548;2023-12-04T07:07:28;-4.90;99.90
7572;DHT22;3827;49.928;8.548;2023-12-04T07:09:55;-3.70;99.90
7572;DHT22;3827;49.928;8.548;2023-12-04T07:12:22;-3.50;99.90
7572;DHT22;3827;49.928;8.548;2023-12-04T07:14:50;-3.10;99.90
7572;DHT22;3827;49.928;8.548;2023-12-04T07:17:16;-3.40;99.90
7572;DHT22;3827;49.928;8.548;2023-12-04T07:19:43;-3.30;99.90
7572;DHT22;3827;49.928;8.548;2023-12-04T07:22:10;-3.30;99.90
7572;DHT22;3827;49.928;8.548;2023-12-04T07:24:37;-3.00;99.90
7572;DHT22;3827;49.928;8.548;2023-12-04T07:27:04;-2.30;99.90
7572;DHT22;3827;49.928;8.548;2023-12-04T07:29:31;-3.10;99.90
7572;DHT22;3827;49.928;8.548;2023-12-04T07:32:00;-3.10;99.90
7572;DHT22;3827;49.928;8.548;2023-12-04T07:34:27;-3.00;99.90
7572;DHT22;3827;49.928;8.548;2023-12-04T07:36:54;-3.00;99.90
7572;DHT22;3827;49.928;8.548;2023-12-04T07:39:21;-2.90;99.90
7572;DHT22;3827;49.928;8.548;2023-12-04T07:41:47;-3.00;99.90
7572;DHT22;3827;49.928;8.548;2023-12-04T07:44:14;-2.80;99.90
7572;DHT22;3827;49.928;8.548;2023-12-04T07:46:41;-2.80;99.90
7572;DHT22;3827;49.928;8.548;2023-12-04T07:49:09;-2.50;99.90
7572;DHT22;3827;49.928;8.548;2023-12-04T07:51:36;-2.70;99.90
7572;DHT22;3827;49.928;8.548;2023-12-04T07:54:03;-2.60;99.90
7572;DHT22;3827;49.928;8.548;2023-12-04T07:56:30;-2.40;99.90
7572;DHT22;3827;49.928;8.548;2023-12-04T07:58:57;-2.50;99.90
7572;DHT22;3827;49.928;8.548;2023-12-04T08:01:24;-2.10;99.90
7572;DHT22;3827;49.928;8.548;2023-12-04T08:03:51;-2.30;99.90
7572;DHT22;3827;49.928;8.548;2023-12-04T08:06:19;-2.40;99.90
7572;DHT22;3827;49.928;8.548;2023-12-04T08:08:45;-2.30;99.90
7572;DHT22;3827;49.928;8.548;2023-12-04T08:11:12;-2.30;99.90
7572;DHT22;3827;49.928;8.548;2023-12-04T08:13:39;-1.70;99.90
7572;DHT22;3827;49.928;8.548;2023-12-04T08:16:12;-2.10;99.90
7572;DHT22;3827;49.928;8.548;2023-12-04T08:18:40;-2.10;99.90
7572;DHT22;3827;49.928;8.548;2023-12-04T08:21:07;-2.40;99.90
7572;DHT22;3827;49.928;8.548;2023-12-04T08:23:36;-1.80;99.90
7572;DHT22;3827;49.928;8.548;2023-12-04T08:26:03;-2.10;99.90
7572;DHT22;3827;49.928;8.548;2023-12-04T08:28:30;-2.00;99.90
7572;DHT22;3827;49.928;8.548;2023-12-04T08:30:57;-2.00;99.90
7572;DHT22;3827;49.928;8.548;2023-12-04T08:33:24;-1.80;99.90
7572;DHT22;3827;49.928;8.548;2023-12-04T08:35:50;-1.80;99.90
7572;DHT22;3827;49.928;8.548;2023-12-04T08:38:17;-1.80;99.90
7572;DHT22;3827;49.928;8.548;2023-12-04T08:40:46;-1.70;99.90
7572;DHT22;3827;49.928;8.548;2023-12-04T08:43:13;-0.90;99.90
7572;DHT22;3827;49.928;8.548;2023-12-04T08:45:40;-1.40;99.90
7572;DHT22;3827;49.928;8.548;2023-12-04T08:48:07;-1.40;99.90
7572;DHT22;3827;49.928;8.548;2023-12-04T08:50:34;-1.00;99.90
7572;DHT22;3827;49.928;8.548;2023-12-04T08:53:02;-1.40;99.90
7572;DHT22;3827;49.928;8.548;2023-12-04T08:55:32;-1.10;99.90
7572;DHT22;3827;49.928;8.548;2023-12-04T08:58:00;-1.10;99.90
7572;DHT22;3827;49.928;8.548;2023-12-04T09:00:27;-1.10;99.90
7572;DHT22;3827;49.928;8.548;2023-12-04T09:02:54;-1.20;99.90
7572;DHT22;3827;49.928;8.548;2023-12-04T09:05:21;-1.80;99.90
7572;DHT22;3827;49.928;8.548;2023-12-04T09:07:48;-0.10;99.90
7572;DHT22;3827;49.928;8.548;2023-12-04T09:10:13;-1.10;99.90
7572;DHT22;3827;49.928;8.548;2023-12-04T09:12:40;-1.10;99.90
7572;DHT22;3827;49.928;8.548;2023-12-04T09:15:08;-0.40;99.90
7572;DHT22;3827;49.928;8.548;2023-12-04T09:17:35;-1.10;99.90
7572;DHT22;3827;49.928;8.548;2023-12-04T09:20:02;-1.00;99.90
7572;DHT22;3827;49.928;8.548;2023-12-04T09:22:31;-1.00;99.90
7572;DHT22;3827;49.928;8.548;2023-12-04T09:24:58;-1.30;99.90
7572;DHT22;3827;49.928;8.548;2023-12-04T09:27:24;-1.10;99.90
7572;DHT22;3827;49.928;8.548;2023-12-04T09:29:51;-1.00;99.90
7572;DHT22;3827;49.928;8.548;2023-12-04T09:32:19;-1.50;99.90
7572;DHT22;3827;49.928;8.548;2023-12-04T09:34:46;-1.00;99.90
7572;DHT22;3827;49.928;8.548;2023-12-04T09:37:13;-1.00;99.90
7572;DHT22;3827;49.928;8.548;2023-12-04T09:39:40;1.60;99.90
7572;DHT22;3827;49.928;8.548;2023-12-04T09:42:07;-0.90;99.90
7572;DHT22;3827;49.928;8.548;2023-12-04T09:44:34;-0.90;99.90
7572;DHT22;3827;49.928;8.548;2023-12-04T09:47:03;-0.90;99.90
7572;DHT22;3827;49.928;8.548;2023-12-04T09:49:32;-1.00;99.90
7572;DHT22;3827;49.928;8.548;2023-12-04T09:52:00;-1.00;99.90
7572;DHT22;3827;49.928;8.548;2023-12-04T09:54:29;-1.00;99.90
7572;DHT22;3827;49.928;8.548;2023-12-04T09:56:56;-0.90;99.90
7572;DHT22;3827;49.928;8.548;2023-12-04T09:59:24;0.10;99.90
7572;DHT22;3827;49.928;8.548;2023-12-04T10:01:51;-0.90;99.90
7572;DHT22;3827;49.928;8.548;2023-12-04T10:04:18;-0.70;99.90
7572;DHT22;3827;49.928;8.548;2023-12-04T10:06:49;-0.90;99.90
7572;DHT22;3827;49.928;8.548;2023-12-04T10:09:16;-0.80;99.90
7572;DHT22;3827;49.928;8.548;2023-12-04T10:11:44;-0.80;99.90
7572;DHT22;3827;49.928;8.548;2023-12-04T10:14:16;-0.70;99.90
7572;DHT22;3827;49.928;8.548;2023-12-04T10:16:43;0.60;99.90
7572;DHT22;3827;49.928;8.548;2023-12-04T10:19:19;-0.60;99.90
7572;DHT22;3827;49.928;8.548;2023-12-04T10:21:50;-0.50;99.90
7572;DHT22;3827;49.928;8.548;2023-12-04T10:24:31;-0.30;99.90
7572;DHT22;3827;49.928;8.548;2023-12-04T10:26:59;-0.40;99.90
7572;DHT22;3827;49.928;8.548;2023-12-04T10:29:28;0.60;99.90
7572;DHT22;3827;49.928;8.548;2023-12-04T10:31:58;-0.20;99.90
7572;DHT22;3827;49.928;8.548;2023-12-04T10:34:26;-0.20;99.90
7572;DHT22;3827;49.928;8.548;2023-12-04T10:36:55;0.00;99.90
7572;DHT22;3827;49.928;8.548;2023-12-04T10:39:23;0.10;99.90
7572;DHT22;3827;49.928;8.548;2023-12-04T10:42:01;0.20;99.90
7572;DHT22;3827;49.928;8.548;2023-12-04T10:44:30;0.30;99.90
7572;DHT22;3827;49.928;8.548;2023-12-04T10:46:57;0.30;99.90
7572;DHT22;3827;49.928;8.548;2023-12-04T10:49:27;0.40;99.90
7572;DHT22;3827;49.928;8.548;2023-12-04T10:51:56;0.60;99.90
7572;DHT22;3827;49.928;8.548;2023-12-04T10:54:25;0.60;99.90
7572;DHT22;3827;49.928;8.548;2023-12-04T10:56:52;0.70;99.90
7572;DHT22;3827;49.928;8.548;2023-12-04T10:59:24;1.70;99.90
7572;DHT22;3827;49.928;8.548;2023-12-04T11:01:53;0.80;99.90
7572;DHT22;3827;49.928;8.548;2023-12-04T11:04:23;0.70;99.90
7572;DHT22;3827;49.928;8.548;2023-12-04T11:06:53;0.70;99.90
7572;DHT22;3827;49.928;8.548;2023-12-04T11:09:22;0.70;99.90
7572;DHT22;3827;49.928;8.548;2023-12-04T11:11:59;0.60;99.90
7572;DHT22;3827;49.928;8.548;2023-12-04T11:14:33;0.60;99.90
7572;DHT22;3827;49.928;8.548;2023-12-04T11:17:04;0.80;99.90
7572;DHT22;3827;49.928;8.548;2023-12-04T11:19:43;2.70;99.90
7572;DHT22;3827;49.928;8.548;2023-12-04T11:22:12;0.50;99.90
7572;DHT22;3827;49.928;8.548;2023-12-04T11:24:41;0.50;99.90
7572;DHT22;3827;49.928;8.548;2023-12-04T11:27:08;0.50;99.90
7572;DHT22;3827;49.928;8.548;2023-12-04T11:29:36;0.30;99.90
7572;DHT22;3827;49.928;8.548;2023-12-04T11:32:05;0.50;99.90
7572;DHT22;3827;49.928;8.548;2023-12-04T11:34:35;0.30;99.90
7572;DHT22;3827;49.928;8.548;2023-12-04T11:37:03;0.20;99.90
7572;DHT22;3827;49.928;8.548;2023-12-04T11:39:33;0.30;99.90
7572;DHT22;3827;49.928;8.548;2023-12-04T11:42:02;0.10;99.90
7572;DHT22;3827;49.928;8.548;2023-12-04T11:44:32;-0.10;99.90
7572;DHT22;3827;49.928;8.548;2023-12-04T11:47:04;-0.10;99.90
7572;DHT22;3827;49.928;8.548;2023-12-04T11:49:31;0.00;99.90
7572;DHT22;3827;49.928;8.548;2023-12-04T11:51:59;0.50;99.90
7572;DHT22;3827;49.928;8.548;2023-12-04T11:54:27;-0.30;99.90
7572;DHT22;3827;49.928;8.548;2023-12-04T11:57:21;-0.40;99.90
7572;DHT22;3827;49.928;8.548;2023-12-04T11:59:49;-0.40;99.90
7572;DHT22;3827;49.928;8.548;2023-12-04T12:02:17;0.70;99.90
7572;DHT22;3827;49.928;8.548;2023-12-04T12:04:44;0.70;99.90
7572;DHT22;3827;49.928;8.548;2023-12-04T12:07:11;-0.50;99.90
7572;DHT22;3827;49.928;8.548;2023-12-04T12:09:39;-0.40;99.90
7572;DHT22;3827;49.928;8.548;2023-12-04T12:12:06;-0.30;99.90
7572;DHT22;3827;49.928;8.548;2023-12-04T12:14:35;-0.40;99.90
7572;DHT22;3827;49.928;8.548;2023-12-04T12:17:03;-0.50;99.90
7572;DHT22;3827;49.928;8.548;2023-12-04T12:19:30;-0.50;99.90
7572;DHT22;3827;49.928;8.548;2023-12-04T12:21:57;-0.70;99.90
7572;DHT22;3827;49.928;8.548;2023-12-04T12:24:24;-0.80;99.90
7572;DHT22;3827;49.928;8.548;2023-12-04T12:26:51;-0.80;99.90
7572;DHT22;3827;49.928;8.548;2023-12-04T12:29:18;-0.70;99.90
7572;DHT22;3827;49.928;8.548;2023-12-04T12:31:46;-0.80;99.90
7572;DHT22;3827;49.928;8.548;2023-12-04T12:34:13;-0.80;99.90
7572;DHT22;3827;49.928;8.548;2023-12-04T12:36:40;-0.90;99.90
7572;DHT22;3827;49.928;8.548;2023-12-04T12:39:07;-1.00;99.90
7572;DHT22;3827;49.928;8.548;2023-12-04T12:41:34;-1.00;99.90
7572;DHT22;3827;49.928;8.548;2023-12-04T12:44:01;-1.20;99.90
7572;DHT22;3827;49.928;8.548;2023-12-04T12:46:29;-1.20;99.90
7572;DHT22;3827;49.928;8.548;2023-12-04T12:48:57;-1.20;99.90
7572;DHT22;3827;49.928;8.548;2023-12-04T12:51:24;-1.30;99.90
7572;DHT22;3827;49.928;8.548;2023-12-04T12:53:51;-1.30;99.90
7572;DHT22;3827;49.928;8.548;2023-12-04T12:56:17;-1.30;99.90
7572;DHT22;3827;49.928;8.548;2023-12-04T12:58:44;-1.10;99.90
7572;DHT22;3827;49.928;8.548;2023-12-04T13:01:12;-1.10;99.90
7572;DHT22;3827;49.928;8.548;2023-12-04T13:03:39;-1.20;99.90
7572;DHT22;3827;49.928;8.548;2023-12-04T13:06:08;-1.50;99.90
7572;DHT22;3827;49.928;8.548;2023-12-04T13:08:35;-1.50;99.90
7572;DHT22;3827;49.928;8.548;2023-12-04T13:11:03;-1.40;99.90
7572;DHT22;3827;49.928;8.548;2023-12-04T13:13:30;-1.50;99.90
7572;DHT22;3827;49.928;8.548;2023-12-04T13:15:57;-1.40;99.90
7572;DHT22;3827;49.928;8.548;2023-12-04T13:18:24;-1.40;99.90
7572;DHT22;3827;49.928;8.548;2023-12-04T13:20:51;-1.20;99.90
7572;DHT22;3827;49.928;8.548;2023-12-04T13:23:20;-1.20;99.90
7572;DHT22;3827;49.928;8.548;2023-12-04T13:25:49;-1.20;99.90
7572;DHT22;3827;49.928;8.548;2023-12-04T13:28:16;-2.10;99.90
7572;DHT22;3827;49.928;8.548;2023-12-04T13:30:43;-1.20;99.90
7572;DHT22;3827;49.928;8.548;2023-12-04T13:33:10;-0.50;99.90
7572;DHT22;3827;49.928;8.548;2023-12-04T13:35:37;-1.10;99.90
7572;DHT22;3827;49.928;8.548;2023-12-04T13:38:04;-1.20;99.90
7572;DHT22;3827;49.928;8.548;2023-12-04T13:40:39;-1.20;99.90
7572;DHT22;3827;49.928;8.548;2023-12-04T13:43:06;-1.20;99.90
7572;DHT22;3827;49.928;8.548;2023-12-04T13:45:51;-1.20;99.90
7572;DHT22;3827;49.928;8.548;2023-12-04T13:48:18;-1.10;99.90
7572;DHT22;3827;49.928;8.548;2023-12-04T13:50:47;-1.10;99.90
7572;DHT22;3827;49.928;8.548;2023-12-04T13:53:15;-0.80;99.90
7572;DHT22;3827;49.928;8.548;2023-12-04T13:55:47;-1.10;99.90
7572;DHT22;3827;49.928;8.548;2023-12-04T13:58:34;-1.00;99.90
7572;DHT22;3827;49.928;8.548;2023-12-04T14:01:08;-1.00;99.90
7572;DHT22;3827;49.928;8.548;2023-12-04T14:03:40;-1.00;99.90
7572;DHT22;3827;49.928;8.548;2023-12-04T14:06:07;-1.10;99.90
7572;DHT22;3827;49.928;8.548;2023-12-04T14:08:35;-0.80;99.90
7572;DHT22;3827;49.928;8.548;2023-12-04T14:11:04;-0.80;99.90
7572;DHT22;3827;49.928;8.548;2023-12-04T14:13:32;-0.70;99.90
7572;DHT22;3827;49.928;8.548;2023-12-04T14:15:59;-0.70;99.90
7572;DHT22;3827;49.928;8.548;2023-12-04T14:18:27;0.00;99.90
7572;DHT22;3827;49.928;8.548;2023-12-04T14:20:55;-0.70;99.90
7572;DHT22;3827;49.928;8.548;2023-12-04T14:23:22;-0.70;99.90
7572;DHT22;3827;49.928;8.548;2023-12-04T14:25:49;-0.30;99.90
7572;DHT22;3827;49.928;8.548;2023-12-04T14:28:18;-0.60;99.90
7572;DHT22;3827;49.928;8.548;2023-12-04T14:30:47;-0.70;99.90
7572;DHT22;3827;49.928;8.548;2023-12-04T14:33:14;-0.60;99.90
7572;DHT22;3827;49.928;8.548;2023-12-04T14:35:41;0.20;99.90
7572;DHT22;3827;49.928;8.548;2023-12-04T14:38:09;-1.60;99.90
7572;DHT22;3827;49.928;8.548;2023-12-04T14:40:36;-0.70;99.90
7572;DHT22;3827;49.928;8.548;2023-12-04T14:43:02;-0.70;99.90
7572;DHT22;3827;49.928;8.548;2023-12-04T14:45:32;0.00;99.90
7572;DHT22;3827;49.928;8.548;2023-12-04T14:47:59;0.00;99.90
7572;DHT22;3827;49.928;8.548;2023-12-04T14:50:26;-0.50;99.90
7572;DHT22;3827;49.928;8.548;2023-12-04T14:52:52;-0.40;99.90
7572;DHT22;3827;49.928;8.548;2023-12-04T14:55:21;-0.50;99.90
7572;DHT22;3827;49.928;8.548;2023-12-04T14:58:05;-0.40;99.90
7572;DHT22;3827;49.928;8.548;2023-12-04T15:00:48;-0.50;99.90
7572;DHT22;3827;49.928;8.548;2023-12-04T15:03:44;-0.50;99.90
7572;DHT22;3827;49.928;8.548;2023-12-04T15:06:51;-0.60;99.90
7572;DHT22;3827;49.928;8.548;2023-12-04T15:09:53;-0.60;99.90
7572;DHT22;3827;49.928;8.548;2023-12-04T15:12:37;-0.50;99.90
7572;DHT22;3827;49.928;8.548;2023-12-04T15:15:31;-0.60;99.90
7572;DHT22;3827;49.928;8.548;2023-12-04T15:18:07;-0.60;99.90
7572;DHT22;3827;49.928;8.548;2023-12-04T15:20:52;-0.70;99.90
7572;DHT22;3827;49.928;8.548;2023-12-04T15:23:19;-0.10;99.90
7572;DHT22;3827;49.928;8.548;2023-12-04T15:25:44;-0.60;99.90
7572;DHT22;3827;49.928;8.548;2023-12-04T15:28:11;-0.70;99.90
7572;DHT22;3827;49.928;8.548;2023-12-04T15:30:39;-0.60;99.90
7572;DHT22;3827;49.928;8.548;2023-12-04T15:33:08;-0.40;99.90
7572;DHT22;3827;49.928;8.548;2023-12-04T15:35:34;-0.70;99.90
7572;DHT22;3827;49.928;8.548;2023-12-04T15:38:03;-0.70;99.90
7572;DHT22;3827;49.928;8.548;2023-12-04T15:40:29;-0.70;99.90
7572;DHT22;3827;49.928;8.548;2023-12-04T15:42:56;-0.70;99.90
7572;DHT22;3827;49.928;8.548;2023-12-04T15:45:22;-0.70;99.90
7572;DHT22;3827;49.928;8.548;2023-12-04T15:47:49;-0.70;99.90
7572;DHT22;3827;49.928;8.548;2023-12-04T15:50:16;-0.70;99.90
7572;DHT22;3827;49.928;8.548;2023-12-04T15:52:44;-0.70;99.90
7572;DHT22;3827;49.928;8.548;2023-12-04T15:55:10;-0.70;99.90
7572;DHT22;3827;49.928;8.548;2023-12-04T15:57:38;-0.80;99.90
7572;DHT22;3827;49.928;8.548;2023-12-04T16:00:05;-0.70;99.90
7572;DHT22;3827;49.928;8.548;2023-12-04T16:02:35;-0.60;99.90
7572;DHT22;3827;49.928;8.548;2023-12-04T16:05:02;-0.60;99.90
7572;DHT22;3827;49.928;8.548;2023-12-04T16:07:31;-0.70;99.90